< < Back
Terminal Aerodrome Forecast


Current Version              Previous Versions:   1  2  3  4  5  6  7  8  9  

Terminal Aerodrome Forecast

519
FTUS42 KFFC 211100
TAFMCN
TAF
KMCN 211122Z 2112/2212 31004KT 6SM BR FEW010 SCT150
     FM211400 31005KT P6SM SCT025
     FM211700 30007KT P6SM SCT045
     FM220200 30002KT P6SM SKC=

Latest METAR

711
SAUS80 KWBC 211400
MTRMCN
METAR KMCN 211353Z 30004KT 10SM CLR 27/22 A3014 RMK AO2 SLP201
T02720222


USA.gov is the U.S. government's official web portal to all federal, state and local government web resources and services.